createdAt,value
2018-11-10T00:02:24.901Z,23.80
2018-11-10T00:04:53.768Z,20.93
2018-11-10T00:07:22.644Z,20.00
2018-11-10T00:10:12.312Z,17.80
2018-11-10T00:12:41.176Z,18.93
2018-11-10T00:15:11.993Z,18.27
2018-11-10T00:17:40.850Z,18.43
2018-11-10T00:20:10.076Z,17.47
2018-11-10T00:22:39.991Z,19.67
2018-11-10T00:25:10.410Z,20.53
2018-11-10T00:27:39.508Z,20.13
2018-11-10T00:30:10.232Z,20.00
2018-11-10T00:32:39.092Z,22.47
2018-11-10T00:35:08.236Z,20.77
2018-11-10T00:37:37.156Z,22.87
2018-11-10T00:40:07.250Z,23.23
2018-11-10T00:42:36.111Z,22.83
2018-11-10T00:45:05.431Z,20.27
2018-11-10T00:47:34.424Z,20.47
2018-11-10T00:50:03.347Z,19.93
2018-11-10T00:52:32.211Z,20.83
2018-11-10T00:55:01.069Z,20.70
2018-11-10T00:57:29.939Z,20.03
2018-11-10T00:59:58.788Z,19.73
2018-11-10T01:02:27.640Z,19.73
2018-11-10T01:04:56.506Z,19.97
2018-11-10T01:07:25.344Z,20.47
2018-11-10T01:09:54.212Z,22.23
2018-11-10T01:12:23.069Z,20.10
2018-11-10T01:14:51.939Z,20.53
2018-11-10T01:17:20.792Z,22.27
2018-11-10T01:19:49.701Z,20.40
2018-11-10T01:22:18.560Z,21.67
2018-11-10T01:24:47.415Z,20.90
2018-11-10T01:27:16.273Z,20.50
2018-11-10T01:29:45.124Z,21.90
2018-11-10T01:32:14.004Z,20.73
2018-11-10T01:34:42.867Z,22.00
2018-11-10T01:37:11.795Z,18.60
2018-11-10T01:39:40.672Z,23.57
2018-11-10T01:42:09.531Z,21.10
2018-11-10T01:44:38.381Z,21.80
2018-11-10T01:47:07.244Z,20.23
2018-11-10T01:49:36.113Z,19.47
2018-11-10T01:52:05.015Z,17.53
2018-11-10T01:54:33.867Z,20.27
2018-11-10T01:57:02.731Z,19.93
2018-11-10T01:59:31.599Z,18.83
2018-11-10T02:02:00.465Z,19.80
2018-11-10T02:04:29.321Z,18.77
2018-11-10T02:06:58.163Z,17.33
2018-11-10T02:09:27.028Z,18.30
2018-11-10T02:11:56.015Z,19.40
2018-11-10T02:14:24.868Z,20.20
2018-11-10T02:16:53.726Z,18.10
2018-11-10T02:19:22.767Z,18.67
2018-11-10T02:21:52.244Z,18.93
2018-11-10T02:24:21.188Z,20.23
2018-11-10T02:26:50.169Z,18.43
2018-11-10T02:29:19.048Z,19.50
2018-11-10T02:31:47.916Z,17.43
2018-11-10T02:34:16.809Z,19.33
2018-11-10T02:36:45.648Z,21.13
2018-11-10T02:39:14.822Z,19.67
2018-11-10T02:41:43.682Z,18.70
2018-11-10T02:44:12.541Z,19.37
2018-11-10T02:46:41.393Z,18.00
2018-11-10T02:49:10.270Z,17.97
2018-11-10T02:51:39.132Z,19.90
2018-11-10T02:54:07.999Z,19.13
2018-11-10T02:56:36.856Z,20.07
2018-11-10T02:59:05.740Z,20.33
2018-11-10T03:01:34.605Z,21.57
2018-11-10T03:04:03.612Z,19.83
2018-11-10T03:06:32.469Z,21.47
2018-11-10T03:09:01.417Z,19.73
2018-11-10T03:11:30.332Z,21.37
2018-11-10T03:13:59.185Z,18.77
2018-11-10T03:16:28.101Z,19.70
2018-11-10T03:18:56.923Z,23.43
2018-11-10T03:21:25.784Z,20.80
2018-11-10T03:23:54.646Z,22.10
2018-11-10T03:26:23.508Z,24.90
2018-11-10T03:28:52.394Z,24.20
2018-11-10T03:31:21.252Z,21.03
2018-11-10T03:33:50.105Z,24.17
2018-11-10T03:36:18.972Z,21.17
2018-11-10T03:38:47.829Z,24.30
2018-11-10T03:41:16.687Z,21.87
2018-11-10T03:43:45.536Z,22.40
2018-11-10T03:46:14.425Z,22.90
2018-11-10T03:48:43.397Z,21.60
2018-11-10T03:51:12.208Z,20.50
2018-11-10T03:53:41.550Z,21.03
2018-11-10T03:56:10.441Z,18.83
2018-11-10T03:58:39.311Z,21.50
2018-11-10T04:01:08.161Z,20.37
2018-11-10T04:03:37.024Z,23.63
2018-11-10T04:06:06.008Z,21.23
2018-11-10T04:08:34.855Z,20.57
2018-11-10T04:11:03.745Z,23.00
2018-11-10T04:13:32.603Z,22.90
2018-11-10T04:16:01.461Z,22.83
2018-11-10T04:18:30.316Z,20.90
2018-11-10T04:20:59.257Z,26.53
2018-11-10T04:23:28.098Z,21.17
2018-11-10T04:25:56.964Z,22.97
2018-11-10T04:28:25.821Z,23.43
2018-11-10T04:30:54.696Z,21.33
2018-11-10T04:33:23.563Z,22.50
2018-11-10T04:35:52.422Z,21.77
2018-11-10T04:38:21.287Z,22.43
2018-11-10T04:40:50.152Z,21.03
2018-11-10T04:43:19.012Z,20.13
2018-11-10T04:45:47.877Z,20.93
2018-11-10T04:48:16.766Z,20.17
2018-11-10T04:50:45.629Z,18.33
2018-11-10T04:53:14.485Z,20.60
2018-11-10T04:55:43.362Z,18.77
2018-11-10T04:58:12.524Z,18.27
2018-11-10T05:00:41.398Z,20.97
2018-11-10T05:03:10.274Z,17.73
2018-11-10T05:05:39.146Z,21.03
2018-11-10T05:08:07.992Z,23.00
2018-11-10T05:10:36.863Z,22.50
2018-11-10T05:13:05.731Z,24.67
2018-11-10T05:15:34.585Z,24.47
2018-11-10T05:18:03.440Z,20.87
2018-11-10T05:20:32.291Z,22.63
2018-11-10T05:23:01.193Z,22.03
2018-11-10T05:25:30.046Z,21.93
2018-11-10T05:27:59.009Z,22.90
2018-11-10T05:30:27.972Z,23.33
2018-11-10T05:32:56.840Z,19.57
2018-11-10T05:35:25.705Z,22.70
2018-11-10T05:37:54.573Z,22.33
2018-11-10T05:40:23.440Z,20.27
2018-11-10T05:42:52.319Z,23.27
2018-11-10T05:45:21.160Z,20.67
2018-11-10T05:47:50.071Z,19.60
2018-11-10T05:50:18.918Z,18.73
2018-11-10T05:52:47.790Z,16.80
2018-11-10T05:55:16.656Z,16.47
2018-11-10T05:57:45.529Z,17.77
2018-11-10T06:00:14.405Z,15.77
2018-11-10T06:02:43.373Z,16.33
2018-11-10T06:05:12.623Z,18.53
2018-11-10T06:07:41.522Z,15.00
2018-11-10T06:10:11.533Z,14.83
2018-11-10T06:12:41.771Z,16.70
2018-11-10T06:15:10.957Z,16.17
2018-11-10T06:17:40.205Z,18.00
2018-11-10T06:20:10.827Z,18.40
2018-11-10T06:22:39.943Z,18.50
2018-11-10T06:25:09.903Z,17.30
2018-11-10T06:27:39.196Z,17.50
2018-11-10T06:30:09.413Z,17.10
2018-11-10T06:32:38.565Z,15.47
2018-11-10T06:35:07.804Z,14.27
2018-11-10T06:37:36.671Z,15.53
2018-11-10T06:40:07.434Z,13.03
2018-11-10T06:42:36.304Z,15.50
2018-11-10T06:45:05.671Z,14.80
2018-11-10T06:47:34.542Z,16.00
2018-11-10T06:50:06.253Z,15.10
2018-11-10T06:52:35.163Z,15.27
2018-11-10T06:55:04.452Z,17.17
2018-11-10T06:57:33.425Z,15.30
2018-11-10T07:00:02.553Z,18.10
2018-11-10T07:02:31.432Z,17.90
2018-11-10T07:05:00.284Z,15.17
2018-11-10T07:07:29.149Z,15.97
2018-11-10T07:09:58.014Z,18.47
2018-11-10T07:12:28.063Z,18.13
2018-11-10T07:14:57.004Z,16.97
2018-11-10T07:17:27.167Z,16.70
2018-11-10T07:19:56.065Z,14.17
2018-11-10T07:22:25.025Z,13.53
2018-11-10T07:24:53.952Z,14.97
2018-11-10T07:27:22.746Z,15.17
2018-11-10T07:29:51.617Z,14.37
2018-11-10T07:32:20.476Z,15.37
2018-11-10T07:34:49.787Z,14.80
2018-11-10T07:37:18.681Z,15.00
2018-11-10T07:39:47.632Z,14.83
2018-11-10T07:42:16.509Z,15.47
2018-11-10T07:44:45.376Z,18.17
2018-11-10T07:47:14.305Z,17.07
2018-11-10T07:49:43.180Z,15.20
2018-11-10T07:52:12.032Z,16.20
2018-11-10T07:54:40.892Z,16.60
2018-11-10T07:57:09.785Z,17.73
2018-11-10T07:59:38.760Z,16.03
2018-11-10T08:02:07.799Z,17.63
2018-11-10T08:04:36.740Z,17.23
2018-11-10T08:07:05.765Z,16.83
2018-11-10T08:09:34.617Z,14.90
2018-11-10T08:12:03.727Z,15.53
2018-11-10T08:14:32.510Z,16.97
2018-11-10T08:17:01.400Z,16.03
2018-11-10T08:19:30.268Z,15.27
2018-11-10T08:21:59.150Z,14.87
2018-11-10T08:24:28.018Z,16.33
2018-11-10T08:26:56.893Z,15.27
2018-11-10T08:29:25.764Z,16.07
2018-11-10T08:31:54.621Z,17.67
2018-11-10T08:34:23.496Z,15.40
2018-11-10T08:36:52.348Z,17.10
2018-11-10T08:39:21.313Z,14.77
2018-11-10T08:41:50.113Z,13.63
2018-11-10T08:44:19.017Z,14.17
2018-11-10T08:46:47.899Z,14.10
2018-11-10T08:49:16.953Z,13.90
2018-11-10T08:51:45.757Z,13.23
2018-11-10T08:54:14.647Z,12.80
2018-11-10T08:56:43.506Z,15.73
2018-11-10T08:59:12.662Z,12.17
2018-11-10T09:01:41.360Z,12.47
2018-11-10T09:04:10.214Z,11.83
2018-11-10T09:06:42.181Z,11.63
2018-11-10T09:09:11.742Z,11.20
2018-11-10T09:11:40.672Z,11.73
2018-11-10T09:14:09.836Z,11.60
2018-11-10T09:16:38.689Z,10.77
2018-11-10T09:19:07.549Z,13.10
2018-11-10T09:21:36.709Z,11.47
2018-11-10T09:24:06.110Z,11.50
2018-11-10T09:26:34.988Z,10.77
2018-11-10T09:29:03.860Z,12.10
2018-11-10T09:31:32.716Z,11.77
2018-11-10T09:34:01.593Z,13.20
2018-11-10T09:36:30.543Z,14.73
2018-11-10T09:38:59.408Z,15.13
2018-11-10T09:41:28.368Z,15.43
2018-11-10T09:43:57.299Z,13.87
2018-11-10T09:46:26.274Z,11.67
2018-11-10T09:48:55.141Z,13.70
2018-11-10T09:51:24.714Z,14.70
2018-11-10T09:53:53.563Z,16.93
2018-11-10T09:56:22.456Z,17.00
2018-11-10T09:58:51.321Z,20.13
2018-11-10T10:01:20.566Z,15.27
2018-11-10T10:03:49.316Z,16.07
2018-11-10T10:06:18.228Z,14.53
2018-11-10T10:08:48.012Z,13.07
2018-11-10T10:11:16.989Z,14.40
2018-11-10T10:13:45.861Z,13.80
2018-11-10T10:16:14.950Z,12.53
2018-11-10T10:18:43.633Z,12.70
2018-11-10T10:21:12.503Z,11.20
2018-11-10T10:23:43.428Z,12.40
2018-11-10T10:26:12.344Z,12.37
2018-11-10T10:28:41.363Z,15.80
2018-11-10T10:31:10.247Z,11.30
2018-11-10T10:33:39.266Z,12.60
2018-11-10T10:36:08.136Z,11.43
2018-11-10T10:38:37.055Z,11.77
2018-11-10T10:41:06.045Z,11.53
2018-11-10T10:43:34.996Z,11.07
2018-11-10T10:46:04.301Z,10.90
2018-11-10T10:48:33.466Z,11.67
2018-11-10T10:51:02.264Z,10.57
2018-11-10T10:53:31.365Z,12.97
2018-11-10T10:56:00.340Z,12.53
2018-11-10T10:58:29.180Z,12.60
2018-11-10T11:01:03.372Z,12.80
2018-11-10T11:03:37.467Z,13.87
2018-11-10T11:06:06.531Z,14.63
2018-11-10T11:08:35.712Z,16.50
2018-11-10T11:11:04.812Z,14.97
2018-11-10T11:13:33.844Z,13.80
2018-11-10T11:16:02.832Z,15.20
2018-11-10T11:18:31.738Z,15.20
2018-11-10T11:21:00.701Z,15.23
2018-11-10T11:23:29.996Z,15.53
2018-11-10T11:25:58.975Z,15.90
2018-11-10T11:28:27.868Z,16.63
2018-11-10T11:30:56.914Z,14.73
2018-11-10T11:33:25.952Z,15.77
2018-11-10T11:35:54.953Z,15.90
2018-11-10T11:38:24.026Z,15.43
2018-11-10T11:40:53.091Z,17.63
2018-11-10T11:43:21.956Z,17.00
2018-11-10T11:45:50.842Z,15.97
2018-11-10T11:48:20.020Z,20.03
2018-11-10T11:50:48.938Z,13.47
2018-11-10T11:53:17.812Z,14.93
2018-11-10T11:55:46.741Z,14.60
2018-11-10T11:58:15.708Z,15.73
2018-11-10T12:00:45.254Z,14.50
2018-11-10T12:03:14.140Z,13.27
2018-11-10T12:05:43.085Z,13.60
2018-11-10T12:08:12.027Z,13.57
2018-11-10T12:10:41.012Z,13.33
2018-11-10T12:13:09.962Z,12.90
2018-11-10T12:15:39.026Z,14.07
2018-11-10T12:18:08.043Z,14.07
2018-11-10T12:20:36.931Z,12.50
2018-11-10T12:23:05.835Z,12.57
2018-11-10T12:25:34.808Z,12.13
2018-11-10T12:28:03.833Z,11.63
2018-11-10T12:30:32.684Z,11.20
2018-11-10T12:33:01.707Z,11.60
2018-11-10T12:35:30.736Z,9.83
2018-11-10T12:37:59.620Z,10.83
2018-11-10T12:40:29.516Z,9.63
2018-11-10T12:42:58.619Z,8.77
2018-11-10T12:45:27.557Z,9.53
2018-11-10T12:47:56.465Z,9.33
2018-11-10T12:50:25.354Z,9.07
2018-11-10T12:52:54.235Z,7.80
2018-11-10T12:55:23.110Z,7.33
2018-11-10T12:57:52.234Z,7.67
2018-11-10T13:00:21.324Z,7.53
2018-11-10T13:02:50.718Z,7.90
2018-11-10T13:05:20.364Z,7.93
2018-11-10T13:07:49.522Z,8.07
2018-11-10T13:10:18.542Z,8.70
2018-11-10T13:12:47.675Z,8.57
2018-11-10T13:15:16.722Z,7.53
2018-11-10T13:17:45.845Z,8.47
2018-11-10T13:20:15.658Z,7.43
2018-11-10T13:22:44.853Z,7.83
2018-11-10T13:25:14.602Z,7.07
2018-11-10T13:27:43.757Z,7.53
2018-11-10T13:30:14.054Z,7.07
2018-11-10T13:32:43.133Z,7.13
2018-11-10T13:35:12.324Z,7.50
2018-11-10T13:37:41.400Z,7.40
2018-11-10T13:40:10.774Z,8.20
2018-11-10T13:42:39.857Z,7.17
2018-11-10T13:45:10.340Z,7.60
2018-11-10T13:47:39.494Z,7.77
2018-11-10T13:50:09.901Z,7.40
2018-11-10T13:52:39.951Z,6.90
2018-11-10T13:55:08.904Z,6.47
2018-11-10T13:57:37.966Z,8.13
2018-11-10T14:00:09.686Z,7.73
2018-11-10T14:02:38.857Z,9.13
2018-11-10T14:05:07.933Z,7.17
2018-11-10T14:07:37.310Z,7.17
2018-11-10T14:10:08.264Z,6.40
2018-11-10T14:12:38.688Z,6.80
2018-11-10T14:15:08.090Z,6.87
2018-11-10T14:17:37.809Z,7.77
2018-11-10T14:20:11.590Z,7.17
2018-11-10T14:22:41.984Z,6.40
2018-11-10T14:25:12.710Z,7.10
2018-11-10T14:27:42.635Z,6.33
2018-11-10T14:30:14.582Z,7.93
2018-11-10T14:32:45.236Z,7.70
2018-11-10T14:35:14.813Z,7.83
2018-11-10T14:37:46.151Z,8.40
2018-11-10T14:40:17.692Z,7.10
2018-11-10T14:42:47.421Z,7.10
2018-11-10T14:45:18.573Z,7.33
2018-11-10T14:47:47.874Z,7.63
2018-11-10T14:50:17.881Z,7.97
2018-11-10T14:52:47.124Z,7.10
2018-11-10T14:55:16.358Z,7.03
2018-11-10T14:57:45.714Z,7.73
2018-11-10T15:00:17.981Z,7.83
2018-11-10T15:02:47.106Z,8.27
2018-11-10T15:05:16.450Z,8.37
2018-11-10T15:07:45.615Z,7.10
2018-11-10T15:10:15.861Z,7.30
2018-11-10T15:12:46.334Z,8.03
2018-11-10T15:15:16.517Z,8.37
2018-11-10T15:17:46.005Z,8.37
2018-11-10T15:20:16.360Z,8.10
2018-11-10T15:22:45.581Z,8.63
2018-11-10T15:25:15.970Z,8.27
2018-11-10T15:27:45.073Z,8.03
2018-11-10T15:30:16.252Z,8.53
2018-11-10T15:32:46.171Z,9.03
2018-11-10T15:35:16.577Z,8.27
2018-11-10T15:37:46.854Z,7.87
2018-11-10T15:40:16.684Z,8.70
2018-11-10T15:42:45.924Z,8.47
2018-11-10T15:45:16.273Z,7.70
2018-11-10T15:47:45.583Z,7.20
2018-11-10T15:50:15.742Z,8.10
2018-11-10T15:52:45.034Z,9.10
2018-11-10T15:55:14.459Z,9.07
2018-11-10T15:57:43.873Z,8.77
2018-11-10T16:00:16.365Z,9.67
2018-11-10T16:02:45.472Z,9.10
2018-11-10T16:05:14.937Z,8.37
2018-11-10T16:07:44.095Z,10.20
2018-11-10T16:10:13.611Z,8.83
2018-11-10T16:12:42.547Z,9.33
2018-11-10T16:15:14.775Z,8.00
2018-11-10T16:17:43.786Z,9.10
2018-11-10T16:20:16.815Z,8.00
2018-11-10T16:22:49.720Z,9.43
2018-11-10T16:25:19.101Z,10.17
2018-11-10T16:27:48.443Z,9.90
2018-11-10T16:30:18.600Z,9.30
2018-11-10T16:32:48.338Z,9.27
2018-11-10T16:35:17.419Z,8.40
2018-11-10T16:37:46.417Z,9.07
2018-11-10T16:40:17.724Z,9.97
2018-11-10T16:42:47.602Z,10.10
2018-11-10T16:45:17.815Z,10.93
2018-11-10T16:47:47.002Z,10.47
2018-11-10T16:50:16.352Z,9.43
2018-11-10T16:52:45.990Z,12.23
2018-11-10T16:55:15.106Z,13.13
2018-11-10T16:57:44.169Z,11.03
2018-11-10T17:00:15.267Z,10.47
2018-11-10T17:02:44.381Z,12.43
2018-11-10T17:05:13.533Z,11.73
2018-11-10T17:07:42.544Z,13.77
2018-11-10T17:10:13.282Z,12.87
2018-11-10T17:12:42.837Z,12.97
2018-11-10T17:15:11.969Z,14.73
2018-11-10T17:17:40.885Z,14.43
2018-11-10T17:20:12.238Z,16.27
2018-11-10T17:22:41.324Z,11.87
2018-11-10T17:25:11.104Z,14.73
2018-11-10T17:27:40.866Z,13.40
2018-11-10T17:30:12.747Z,13.93
2018-11-10T17:32:41.709Z,12.87
2018-11-10T17:35:11.521Z,11.93
2018-11-10T17:37:40.559Z,14.50
2018-11-10T17:40:11.860Z,13.03
2018-11-10T17:42:40.688Z,13.03
2018-11-10T17:45:14.864Z,13.63
2018-11-10T17:47:43.955Z,13.33
2018-11-10T17:50:14.114Z,13.80
2018-11-10T17:52:43.102Z,13.13
2018-11-10T17:55:13.349Z,12.87
2018-11-10T17:57:42.988Z,12.00
2018-11-10T18:00:12.039Z,12.90
2018-11-10T18:02:41.259Z,12.70
2018-11-10T18:05:12.573Z,13.17
2018-11-10T18:07:41.549Z,14.80
2018-11-10T18:10:12.392Z,14.93
2018-11-10T18:12:41.936Z,12.97
2018-11-10T18:15:11.285Z,15.27
2018-11-10T18:17:40.929Z,14.57
2018-11-10T18:20:10.846Z,16.23
2018-11-10T18:22:39.787Z,12.90
2018-11-10T18:25:08.768Z,14.43
2018-11-10T18:27:37.616Z,14.37
2018-11-10T18:30:10.229Z,14.30
2018-11-10T18:32:39.222Z,14.97
2018-11-10T18:35:08.758Z,14.60
2018-11-10T18:37:37.668Z,13.40
2018-11-10T18:40:07.854Z,13.80
2018-11-10T18:42:36.792Z,14.63
2018-11-10T18:45:07.129Z,13.70
2018-11-10T18:47:36.033Z,15.07
2018-11-10T18:50:06.944Z,13.80
2018-11-10T18:52:35.861Z,13.07
2018-11-10T18:55:04.943Z,14.60
2018-11-10T18:57:33.923Z,13.03
2018-11-10T19:00:02.708Z,14.27
2018-11-10T19:02:31.593Z,14.83
2018-11-10T19:05:00.761Z,15.07
2018-11-10T19:07:29.645Z,13.87
2018-11-10T19:09:58.535Z,16.00
2018-11-10T19:12:27.421Z,16.47
2018-11-10T19:14:56.455Z,16.20
2018-11-10T19:17:25.590Z,14.60
2018-11-10T19:19:54.532Z,14.80
2018-11-10T19:22:23.644Z,14.93
2018-11-10T19:24:52.561Z,13.20
2018-11-10T19:27:21.457Z,13.23
2018-11-10T19:29:50.336Z,16.10
2018-11-10T19:32:19.475Z,15.83
2018-11-10T19:34:48.317Z,15.67
2018-11-10T19:37:17.196Z,16.70
2018-11-10T19:39:46.110Z,16.10
2018-11-10T19:42:15.188Z,15.33
2018-11-10T19:44:44.251Z,16.27
2018-11-10T19:47:13.126Z,15.17
2018-11-10T19:49:42.020Z,15.93
2018-11-10T19:52:11.205Z,16.13
2018-11-10T19:54:39.847Z,15.03
2018-11-10T19:57:09.061Z,15.17
2018-11-10T19:59:37.948Z,16.17
2018-11-10T20:02:07.103Z,13.97
2018-11-10T20:04:36.092Z,15.40
2018-11-10T20:07:04.977Z,13.90
2018-11-10T20:09:33.954Z,13.87
2018-11-10T20:12:02.954Z,13.37
2018-11-10T20:14:31.820Z,15.33
2018-11-10T20:17:00.745Z,15.53
2018-11-10T20:19:30.048Z,16.33
2018-11-10T20:21:58.934Z,15.63
2018-11-10T20:24:27.849Z,15.37
2018-11-10T20:26:56.728Z,16.27
2018-11-10T20:29:25.621Z,14.23
2018-11-10T20:31:54.492Z,16.07
2018-11-10T20:34:23.421Z,15.67
2018-11-10T20:36:52.345Z,14.37
2018-11-10T20:39:21.240Z,15.13
2018-11-10T20:41:50.109Z,15.20
2018-11-10T20:44:18.989Z,16.30
2018-11-10T20:46:47.993Z,15.53
2018-11-10T20:49:17.149Z,16.43
2018-11-10T20:51:46.045Z,15.23
2018-11-10T20:54:14.934Z,13.17
2018-11-10T20:56:43.914Z,14.07
2018-11-10T20:59:12.797Z,17.30
2018-11-10T21:01:41.741Z,16.47
2018-11-10T21:04:11.155Z,16.20
2018-11-10T21:06:40.789Z,15.23
2018-11-10T21:09:11.621Z,16.17
2018-11-10T21:11:40.828Z,15.27
2018-11-10T21:16:50.656Z,13.63
2018-11-10T21:19:19.893Z,17.17
2018-11-10T21:21:48.764Z,15.37
2018-11-10T21:24:17.628Z,15.10
2018-11-10T21:26:46.575Z,15.80
2018-11-10T21:29:15.486Z,16.90
2018-11-10T21:31:44.324Z,17.10
2018-11-10T21:34:13.380Z,16.40
2018-11-10T21:36:42.176Z,16.60
2018-11-10T21:39:11.660Z,16.73
2018-11-10T21:41:40.856Z,18.27
2018-11-10T21:44:10.168Z,20.03
2018-11-10T21:46:39.119Z,16.30
2018-11-10T21:49:08.487Z,17.33
2018-11-10T21:51:37.641Z,15.80
2018-11-10T21:54:06.816Z,16.63
2018-11-10T21:56:36.083Z,16.43
2018-11-10T21:59:05.369Z,15.77
2018-11-10T22:01:34.254Z,17.67
2018-11-10T22:04:03.116Z,15.70
2018-11-10T22:06:32.084Z,18.43
2018-11-10T22:09:01.067Z,16.73
2018-11-10T22:11:29.991Z,17.43
2018-11-10T22:13:58.831Z,18.30
2018-11-10T22:16:27.720Z,17.20
2018-11-10T22:18:56.605Z,17.47
2018-11-10T22:21:25.694Z,19.00
2018-11-10T22:23:54.777Z,16.87
2018-11-10T22:26:23.945Z,16.37
2018-11-10T22:28:52.941Z,16.60
2018-11-10T22:31:21.981Z,16.60
2018-11-10T22:33:51.203Z,16.23
2018-11-10T22:36:20.303Z,17.37
2018-11-10T22:38:49.404Z,16.87
2018-11-10T22:41:18.356Z,17.37
2018-11-10T22:43:47.440Z,18.23
2018-11-10T22:46:16.759Z,14.70
2018-11-10T22:48:45.727Z,16.00
2018-11-10T22:51:14.621Z,12.90
2018-11-10T22:53:43.602Z,15.13
2018-11-10T22:56:12.535Z,12.53
2018-11-10T22:58:41.501Z,13.00
2018-11-10T23:01:10.953Z,15.67
2018-11-10T23:03:40.709Z,16.43
2018-11-10T23:06:10.482Z,19.83
2018-11-10T23:08:39.457Z,17.60
2018-11-10T23:11:08.423Z,18.40
2018-11-10T23:13:37.297Z,17.47
2018-11-10T23:16:06.141Z,16.87
2018-11-10T23:18:35.255Z,17.37
2018-11-10T23:21:04.232Z,18.67
2018-11-10T23:23:33.131Z,16.43
2018-11-10T23:26:02.000Z,16.67
2018-11-10T23:28:30.872Z,16.20
2018-11-10T23:30:59.770Z,13.57
2018-11-10T23:33:28.703Z,15.10
2018-11-10T23:35:57.593Z,19.33
2018-11-10T23:38:26.474Z,16.77
2018-11-10T23:40:55.345Z,19.00
2018-11-10T23:43:24.205Z,19.83
2018-11-10T23:45:53.063Z,16.60
2018-11-10T23:48:21.933Z,18.87
2018-11-10T23:50:50.796Z,19.40
2018-11-10T23:53:19.668Z,17.40
2018-11-10T23:55:48.525Z,17.03
2018-11-10T23:58:17.400Z,17.93
